CPY5 weather

Wilson's Heliport
Toronto, Ontario, Canada

Public forecast

Using degrees Celsius for public forecast. Weather courtesy of forecast.io.

METAR (pilot weather report)

Closest report is Lester B. Pearson International Airport, 4.6 nm (8.5 km) NW. Retrieved 2018/11/16 16:00 UTC (8 minutes ago):

CYYZ 161600Z 25013KT 15SM OVC015 01/00 A2969 RMK SC8 SLP063

TAF (pilot weather forecast)

Closest forecast is Lester B. Pearson International Airport, 4.6 nm (8.5 km) NW. Retrieved 2018/11/16 15:39 UTC (29 minutes ago):

TAF CYYZ 161438Z 1615/1718 22010KT 6SM -SN OVC012 TEMPO 1615/1617 21/2SM -SN OVC007 FM161645 23010G20KT 11/2SM -SN VV009 TEMPO 1616/1618 3SM -SNRA OVC015 FM161800 25015G25KT 6SM -SNRA BKN020 OVC040 TEMPO 1618/1620 21/2SM -SN OVC015 FM162000 25015G25KT P6SM BKN025 BKN060 BECMG 1700/1702 25012KT FM170400 27010KT P6SM BKN030 FM171500 28015G25KT 6SM -SHRASN BR BKN030 OVC090 RMK NXT FCST BY 161800Z